createdAt,value
2022-12-06T00:01:19.649Z,38.77
2022-12-06T00:03:51.242Z,43.53
2022-12-06T00:06:20.823Z,44.67
2022-12-06T00:08:48.592Z,40.17
2022-12-06T00:11:18.745Z,39.93
2022-12-06T00:13:46.988Z,45.37
2022-12-06T00:16:16.888Z,39.07
2022-12-06T00:18:45.501Z,32.30
2022-12-06T00:21:22.107Z,26.73
2022-12-06T00:24:17.079Z,33.43
2022-12-06T00:26:46.270Z,25.93
2022-12-06T00:29:19.958Z,26.57
2022-12-06T00:31:47.607Z,29.80
2022-12-06T00:34:15.080Z,25.10
2022-12-06T00:36:43.071Z,27.30
2022-12-06T00:39:13.833Z,27.87
2022-12-06T00:41:42.144Z,25.80
2022-12-06T00:44:10.125Z,42.10
2022-12-06T00:46:38.039Z,29.37
2022-12-06T00:49:06.906Z,25.10
2022-12-06T00:51:35.747Z,28.07
2022-12-06T00:54:03.272Z,31.67
2022-12-06T00:56:30.615Z,32.23
2022-12-06T00:58:57.764Z,38.10
2022-12-06T01:01:31.155Z,40.63
2022-12-06T01:04:00.443Z,39.27
2022-12-06T01:06:30.550Z,35.67
2022-12-06T01:09:00.003Z,34.90
2022-12-06T01:11:28.452Z,25.70
2022-12-06T01:13:56.231Z,25.93
2022-12-06T01:16:25.796Z,30.80
2022-12-06T01:18:55.288Z,27.93
2022-12-06T01:21:23.250Z,32.13
2022-12-06T01:23:51.088Z,27.30
2022-12-06T01:26:25.750Z,28.67
2022-12-06T01:28:53.168Z,30.60
2022-12-06T01:31:20.555Z,29.97
2022-12-06T01:33:47.657Z,22.27
2022-12-06T01:36:23.457Z,32.17
2022-12-06T01:38:51.867Z,32.13
2022-12-06T01:41:20.941Z,31.20
2022-12-06T01:43:48.889Z,28.20
2022-12-06T01:46:44.722Z,27.57
2022-12-06T01:49:27.012Z,34.37
2022-12-06T01:52:00.220Z,28.73
2022-12-06T01:54:28.842Z,22.23
2022-12-06T01:56:58.018Z,29.77
2022-12-06T01:59:26.325Z,25.00
2022-12-06T02:01:54.210Z,32.73
2022-12-06T02:04:22.470Z,55.07
2022-12-06T02:06:51.653Z,46.00
2022-12-06T02:09:19.823Z,44.80
2022-12-06T02:11:47.571Z,32.53
2022-12-06T02:14:19.293Z,36.77
2022-12-06T02:17:28.558Z,37.93
2022-12-06T02:20:34.506Z,60.63
2022-12-06T02:23:31.263Z,49.80
2022-12-06T02:26:27.108Z,36.60
2022-12-06T02:29:53.383Z,46.47
2022-12-06T02:32:30.034Z,70.67
2022-12-06T02:35:34.824Z,60.27
2022-12-06T02:38:18.564Z,44.03
2022-12-06T02:40:54.337Z,39.07
2022-12-06T02:43:26.789Z,61.03
2022-12-06T02:45:57.808Z,42.03
2022-12-06T02:48:26.472Z,41.67
2022-12-06T02:51:06.346Z,44.07
2022-12-06T02:53:37.108Z,53.60
2022-12-06T02:56:04.870Z,35.83
2022-12-06T02:58:37.321Z,37.27
2022-12-06T03:01:14.334Z,63.93
2022-12-06T03:04:04.116Z,79.20
2022-12-06T03:06:56.138Z,33.77
2022-12-06T03:10:00.248Z,38.50
2022-12-06T03:12:39.869Z,48.63
2022-12-06T03:15:55.542Z,51.47
2022-12-06T03:18:32.293Z,50.03
2022-12-06T03:21:12.363Z,42.13
2022-12-06T03:23:45.554Z,42.43
2022-12-06T03:26:16.767Z,43.50
2022-12-06T03:28:47.671Z,47.23
2022-12-06T03:31:15.359Z,37.70
2022-12-06T03:33:59.442Z,49.90
2022-12-06T03:36:27.923Z,34.83
2022-12-06T03:39:06.949Z,65.77
2022-12-06T03:41:44.832Z,57.93
2022-12-06T03:44:12.037Z,48.83
2022-12-06T03:46:45.132Z,43.00
2022-12-06T03:49:16.137Z,47.93
2022-12-06T03:51:44.086Z,62.60
2022-12-06T03:54:11.520Z,51.83
2022-12-06T03:56:39.364Z,41.43
2022-12-06T03:59:08.313Z,45.20
2022-12-06T04:01:35.671Z,70.03
2022-12-06T04:04:03.374Z,52.60
2022-12-06T04:06:30.632Z,36.30
2022-12-06T04:09:16.411Z,43.93
2022-12-06T04:11:43.458Z,46.87
2022-12-06T04:14:10.673Z,37.33
2022-12-06T04:16:56.360Z,46.50
2022-12-06T04:19:23.503Z,66.50
2022-12-06T04:22:08.869Z,29.33
2022-12-06T04:24:35.923Z,39.00
2022-12-06T04:27:21.635Z,52.70
2022-12-06T04:30:07.171Z,31.90
2022-12-06T04:32:52.802Z,46.97
2022-12-06T04:35:38.270Z,29.40
2022-12-06T04:38:23.788Z,26.13
2022-12-06T04:40:50.857Z,36.50
2022-12-06T04:43:36.413Z,40.80
2022-12-06T04:46:03.674Z,28.10
2022-12-06T04:48:30.696Z,46.73
2022-12-06T04:50:57.793Z,41.67
2022-12-06T04:53:24.858Z,48.97
2022-12-06T04:55:52.943Z,36.67
2022-12-06T04:58:20.021Z,38.80
2022-12-06T05:00:47.150Z,44.37
2022-12-06T05:03:15.123Z,31.33
2022-12-06T05:05:42.644Z,39.53
2022-12-06T05:08:10.202Z,38.43
2022-12-06T05:10:37.643Z,43.07
2022-12-06T05:13:05.676Z,40.03
2022-12-06T05:15:33.290Z,42.97
2022-12-06T05:18:00.362Z,36.87
2022-12-06T05:20:27.497Z,44.67
2022-12-06T05:22:54.521Z,27.70
2022-12-06T05:25:21.610Z,27.27
2022-12-06T05:27:48.792Z,36.33
2022-12-06T05:30:16.043Z,51.70
2022-12-06T05:32:43.105Z,31.93
2022-12-06T05:35:10.470Z,28.63
2022-12-06T05:37:37.553Z,33.20
2022-12-06T05:40:05.354Z,27.73
2022-12-06T05:42:32.356Z,38.20
2022-12-06T05:44:59.420Z,31.90
2022-12-06T05:47:26.494Z,38.67
2022-12-06T05:49:53.645Z,32.10
2022-12-06T05:52:20.657Z,24.63
2022-12-06T05:54:47.738Z,34.53
2022-12-06T05:57:14.774Z,30.33
2022-12-06T05:59:41.880Z,34.13
2022-12-06T06:02:08.963Z,46.50
2022-12-06T06:04:36.204Z,47.47
2022-12-06T06:07:03.243Z,37.10
2022-12-06T06:09:30.370Z,42.13
2022-12-06T06:11:57.423Z,31.70
2022-12-06T06:14:24.604Z,34.13
2022-12-06T06:16:52.318Z,21.97
2022-12-06T06:19:19.525Z,26.83
2022-12-06T06:21:47.213Z,23.70
2022-12-06T06:24:14.307Z,31.20
2022-12-06T06:26:41.543Z,32.37
2022-12-06T06:29:08.760Z,33.30
2022-12-06T06:31:35.961Z,29.10
2022-12-06T06:34:03.789Z,23.63
2022-12-06T06:36:30.783Z,30.03
2022-12-06T06:38:59.054Z,30.67
2022-12-06T06:41:26.190Z,32.70
2022-12-06T06:43:53.302Z,28.23
2022-12-06T06:46:20.343Z,29.37
2022-12-06T06:48:48.170Z,29.10
2022-12-06T06:51:15.174Z,38.27
2022-12-06T06:53:42.228Z,28.40
2022-12-06T06:56:09.709Z,27.80
2022-12-06T06:58:36.917Z,32.67
2022-12-06T07:01:05.897Z,26.47
2022-12-06T07:03:33.861Z,27.00
2022-12-06T07:06:10.803Z,24.77
2022-12-06T07:08:39.713Z,26.87
2022-12-06T07:11:07.587Z,28.27
2022-12-06T07:13:36.037Z,29.00
2022-12-06T07:16:04.620Z,29.07
2022-12-06T07:18:31.680Z,28.13
2022-12-06T07:21:04.487Z,26.67
2022-12-06T07:23:33.402Z,31.53
2022-12-06T07:26:06.306Z,28.23
2022-12-06T07:28:39.455Z,27.35
2022-12-06T07:31:18.209Z,22.97
2022-12-06T07:33:46.303Z,22.27
2022-12-06T07:36:14.850Z,24.97
2022-12-06T07:38:43.572Z,27.37
2022-12-06T07:41:31.580Z,26.83
2022-12-06T07:44:18.435Z,22.27
2022-12-06T07:46:46.024Z,26.60
2022-12-06T07:49:15.812Z,25.00
2022-12-06T07:51:43.867Z,28.17
2022-12-06T07:54:11.211Z,22.40
2022-12-06T07:56:38.336Z,23.43
2022-12-06T07:59:05.676Z,32.00
2022-12-06T08:01:33.271Z,20.57
2022-12-06T08:04:01.922Z,26.20
2022-12-06T08:06:30.864Z,24.90
2022-12-06T08:08:59.038Z,28.60
2022-12-06T08:11:26.191Z,26.43
2022-12-06T08:13:53.167Z,32.60
2022-12-06T08:16:20.617Z,27.80
2022-12-06T08:18:47.801Z,28.00
2022-12-06T08:21:16.626Z,28.73
2022-12-06T08:23:43.724Z,28.23
2022-12-06T08:26:15.648Z,25.33
2022-12-06T08:28:46.045Z,26.77
2022-12-06T08:31:16.911Z,23.63
2022-12-06T08:33:44.619Z,32.20
2022-12-06T08:36:14.353Z,30.33
2022-12-06T08:38:41.584Z,25.10
2022-12-06T08:41:28.758Z,24.00
2022-12-06T08:43:56.837Z,27.30
2022-12-06T08:46:24.355Z,34.07
2022-12-06T08:48:51.864Z,29.23
2022-12-06T08:51:18.957Z,24.80
2022-12-06T08:53:46.020Z,31.97
2022-12-06T08:56:13.128Z,26.07
2022-12-06T08:58:40.205Z,23.87
2022-12-06T09:01:16.110Z,24.73
2022-12-06T09:03:43.298Z,30.90
2022-12-06T09:06:11.218Z,19.80
2022-12-06T09:08:38.625Z,24.37
2022-12-06T09:11:07.013Z,19.33
2022-12-06T09:13:37.978Z,24.97
2022-12-06T09:16:10.851Z,26.93
2022-12-06T09:18:38.085Z,25.20
2022-12-06T09:21:06.730Z,20.77
2022-12-06T09:23:35.321Z,19.73
2022-12-06T09:26:03.634Z,20.90
2022-12-06T09:28:31.782Z,24.40
2022-12-06T09:30:58.971Z,21.90
2022-12-06T09:33:26.875Z,22.57
2022-12-06T09:35:54.105Z,23.30
2022-12-06T09:38:24.393Z,20.20
2022-12-06T09:42:05.021Z,24.80
2022-12-06T09:45:01.389Z,23.90
2022-12-06T09:47:56.978Z,19.67
2022-12-06T09:50:50.244Z,21.33
2022-12-06T09:53:26.387Z,21.47
2022-12-06T09:56:40.203Z,25.23
2022-12-06T09:59:29.840Z,19.00
2022-12-06T10:03:04.728Z,25.93
2022-12-06T10:06:01.889Z,32.87
2022-12-06T10:09:12.208Z,31.03
2022-12-06T10:12:16.094Z,31.13
2022-12-06T10:15:27.099Z,23.20
2022-12-06T10:18:21.884Z,21.70
2022-12-06T10:21:22.039Z,31.20
2022-12-06T10:24:31.877Z,39.27
2022-12-06T10:27:23.821Z,39.37
2022-12-06T10:30:02.008Z,32.47
2022-12-06T10:41:34.478Z,29.67
2022-12-06T10:44:26.149Z,31.47
2022-12-06T10:47:06.865Z,25.13
2022-12-06T10:53:12.827Z,32.40
2022-12-06T10:55:55.543Z,27.30
2022-12-06T11:01:49.904Z,23.13
2022-12-06T11:04:25.211Z,23.40
2022-12-06T11:07:15.887Z,26.03
2022-12-06T11:09:52.029Z,25.40
2022-12-06T11:12:38.754Z,25.17
2022-12-06T11:15:36.494Z,21.40
2022-12-06T11:18:13.306Z,23.37
2022-12-06T11:20:48.257Z,22.33
2022-12-06T11:23:47.920Z,27.33
2022-12-06T11:26:57.450Z,19.90
2022-12-06T11:29:24.519Z,27.87
2022-12-06T11:31:55.012Z,21.70
2022-12-06T11:35:01.526Z,21.70
2022-12-06T11:37:33.971Z,23.67
2022-12-06T11:40:29.485Z,23.90
2022-12-06T11:43:00.891Z,23.93
2022-12-06T11:45:34.813Z,22.00
2022-12-06T11:48:11.536Z,25.93
2022-12-06T11:50:38.772Z,23.23
2022-12-06T11:53:15.586Z,24.07
2022-12-06T11:55:45.825Z,25.83
2022-12-06T11:58:59.236Z,25.50
2022-12-06T12:01:44.134Z,22.47
2022-12-06T12:04:35.817Z,27.07
2022-12-06T12:07:29.399Z,22.27
2022-12-06T12:10:01.882Z,27.37
2022-12-06T12:13:01.522Z,31.93
2022-12-06T12:15:28.834Z,34.70
2022-12-06T12:17:58.605Z,32.03
2022-12-06T12:20:30.351Z,28.80
2022-12-06T12:23:03.844Z,27.73
2022-12-06T12:25:36.617Z,28.33
2022-12-06T12:28:26.779Z,38.20
2022-12-06T12:30:56.267Z,35.97
2022-12-06T12:33:25.846Z,40.47
2022-12-06T12:36:09.928Z,38.10
2022-12-06T12:38:56.010Z,33.77
2022-12-06T12:41:31.662Z,32.10
2022-12-06T12:44:36.473Z,36.67
2022-12-06T12:47:20.980Z,35.03
2022-12-06T12:50:23.924Z,36.33
2022-12-06T12:52:51.931Z,43.47
2022-12-06T12:55:25.408Z,42.60
2022-12-06T12:57:58.498Z,38.17
2022-12-06T13:00:37.377Z,43.73
2022-12-06T13:03:34.894Z,36.63
2022-12-06T13:05:59.750Z,37.80
2022-12-06T13:08:33.863Z,41.13
2022-12-06T13:11:03.369Z,57.27
2022-12-06T13:13:43.059Z,34.33
2022-12-06T13:16:14.996Z,35.13
2022-12-06T13:18:54.182Z,33.50
2022-12-06T13:21:24.328Z,36.87
2022-12-06T13:23:57.146Z,36.50
2022-12-06T13:26:28.784Z,27.77
2022-12-06T13:29:11.391Z,34.63
2022-12-06T13:31:41.079Z,32.00
2022-12-06T13:34:41.983Z,31.53
2022-12-06T13:37:36.841Z,37.03
2022-12-06T13:40:05.825Z,31.20
2022-12-06T13:42:45.625Z,34.47
2022-12-06T13:45:40.544Z,35.37
2022-12-06T13:49:12.395Z,28.73
2022-12-06T13:51:43.854Z,35.93
2022-12-06T13:54:31.826Z,34.13
2022-12-06T13:57:02.345Z,35.57
2022-12-06T13:59:35.237Z,29.43
2022-12-06T14:02:02.504Z,32.77
2022-12-06T14:09:49.990Z,23.60
2022-12-06T14:12:28.569Z,28.10
2022-12-06T14:15:00.746Z,23.97
2022-12-06T14:20:33.506Z,24.70
2022-12-06T14:23:00.587Z,25.00
2022-12-06T14:25:29.861Z,29.10
2022-12-06T14:28:06.253Z,25.23
2022-12-06T14:30:33.642Z,24.13
2022-12-06T14:33:00.801Z,26.03
2022-12-06T14:35:35.352Z,29.67
2022-12-06T14:38:19.802Z,28.93
2022-12-06T14:41:05.841Z,30.13
2022-12-06T14:43:34.725Z,24.67
2022-12-06T14:46:07.745Z,28.23
2022-12-06T14:48:54.229Z,26.27
2022-12-06T14:51:33.924Z,25.50
2022-12-06T14:54:31.347Z,25.30
2022-12-06T14:56:58.509Z,29.03
2022-12-06T15:00:10.832Z,24.77
2022-12-06T15:02:28.347Z,26.53
2022-12-06T15:04:55.874Z,25.47
2022-12-06T15:07:43.149Z,26.13
2022-12-06T15:10:29.913Z,29.23
2022-12-06T15:13:14.477Z,26.43
2022-12-06T15:15:45.237Z,31.20
2022-12-06T15:18:23.989Z,25.30
2022-12-06T15:20:53.547Z,26.93
2022-12-06T15:23:41.102Z,29.23
2022-12-06T15:26:12.096Z,27.00
2022-12-06T15:28:39.483Z,28.77
2022-12-06T15:31:14.228Z,29.00
2022-12-06T15:33:41.394Z,29.50
2022-12-06T15:36:14.145Z,30.17
2022-12-06T15:38:41.421Z,25.20
2022-12-06T15:41:23.796Z,28.00
2022-12-06T15:43:52.063Z,33.73
2022-12-06T15:46:28.167Z,27.63
2022-12-06T15:48:56.071Z,30.97
2022-12-06T15:51:26.716Z,29.83
2022-12-06T15:53:56.177Z,28.00
2022-12-06T15:56:27.897Z,29.53
2022-12-06T15:58:54.954Z,30.97
2022-12-06T16:01:33.302Z,30.90
2022-12-06T16:04:00.851Z,29.10
2022-12-06T16:06:32.448Z,30.00
2022-12-06T16:08:59.514Z,29.80
2022-12-06T16:11:27.343Z,27.50
2022-12-06T16:13:54.473Z,27.73
2022-12-06T16:16:22.963Z,31.53
2022-12-06T16:18:50.748Z,30.27
2022-12-06T16:21:31.119Z,30.17
2022-12-06T16:24:12.992Z,30.17
2022-12-06T16:26:44.279Z,31.50
2022-12-06T16:29:29.513Z,29.27
2022-12-06T16:31:56.907Z,31.47
2022-12-06T16:34:25.079Z,40.13
2022-12-06T16:37:10.998Z,36.43
2022-12-06T16:39:38.061Z,39.93
2022-12-06T16:42:05.610Z,52.47
2022-12-06T16:44:34.152Z,45.03
2022-12-06T16:47:01.266Z,39.27
2022-12-06T16:49:46.451Z,37.43
2022-12-06T16:52:15.826Z,41.80
2022-12-06T16:54:43.068Z,47.60
2022-12-06T16:57:13.895Z,48.33
2022-12-06T16:59:42.814Z,46.13
2022-12-06T17:02:31.208Z,47.77
2022-12-06T17:05:01.381Z,48.57
2022-12-06T17:07:29.309Z,47.43
2022-12-06T17:09:56.737Z,53.17
2022-12-06T17:12:24.290Z,61.30
2022-12-06T17:14:51.501Z,51.37
2022-12-06T17:17:21.584Z,55.40
2022-12-06T17:19:49.512Z,61.80
2022-12-06T17:22:17.376Z,57.30
2022-12-06T17:24:45.030Z,63.73
2022-12-06T17:27:15.081Z,66.23
2022-12-06T17:29:43.652Z,56.63
2022-12-06T17:32:11.922Z,64.27
2022-12-06T17:34:39.134Z,64.80
2022-12-06T17:37:06.347Z,58.13
2022-12-06T17:39:33.834Z,62.60
2022-12-06T17:42:19.726Z,66.00
2022-12-06T17:44:46.877Z,66.97
2022-12-06T17:47:13.944Z,63.13
2022-12-06T17:49:41.050Z,65.07
2022-12-06T17:52:08.132Z,67.13
2022-12-06T17:54:35.273Z,73.30
2022-12-06T17:57:02.339Z,73.83
2022-12-06T17:59:32.101Z,79.23
2022-12-06T18:02:17.256Z,72.33
2022-12-06T18:04:45.936Z,79.57
2022-12-06T18:07:14.072Z,80.47
2022-12-06T18:09:41.349Z,79.13
2022-12-06T18:12:09.911Z,74.23
2022-12-06T18:14:37.159Z,77.40
2022-12-06T18:17:04.533Z,72.93
2022-12-06T18:19:32.374Z,78.37
2022-12-06T18:21:59.525Z,76.67
2022-12-06T18:24:31.993Z,68.60
2022-12-06T18:27:01.131Z,74.03
2022-12-06T18:29:28.192Z,68.53
2022-12-06T18:31:55.362Z,69.40
2022-12-06T18:34:22.579Z,71.10
2022-12-06T18:36:49.753Z,66.47
2022-12-06T18:39:24.459Z,74.73
2022-12-06T18:41:53.288Z,71.33
2022-12-06T18:44:20.591Z,77.60
2022-12-06T18:46:47.971Z,74.43
2022-12-06T18:49:15.450Z,84.53
2022-12-06T18:51:42.812Z,85.90
2022-12-06T18:54:11.399Z,79.90
2022-12-06T18:56:38.520Z,84.30
2022-12-06T18:59:07.340Z,64.00
2022-12-06T19:01:36.995Z,60.87
2022-12-06T19:04:06.115Z,55.10
2022-12-06T19:06:35.619Z,56.57
2022-12-06T19:09:09.562Z,53.37
2022-12-06T19:11:42.008Z,59.53
2022-12-06T19:14:10.198Z,60.60
2022-12-06T19:16:43.386Z,58.27
2022-12-06T19:19:16.860Z,63.83
2022-12-06T19:21:46.186Z,53.27
2022-12-06T19:24:16.139Z,55.47
2022-12-06T19:26:43.460Z,66.47
2022-12-06T19:29:10.609Z,56.70
2022-12-06T19:31:37.832Z,57.43
2022-12-06T19:34:05.025Z,56.17
2022-12-06T19:36:32.761Z,62.00
2022-12-06T19:39:03.170Z,62.33
2022-12-06T19:41:30.971Z,62.23
2022-12-06T19:44:17.135Z,69.13
2022-12-06T19:46:45.996Z,73.30
2022-12-06T19:49:14.811Z,71.77
2022-12-06T19:51:44.136Z,73.67
2022-12-06T19:54:14.750Z,62.60
2022-12-06T19:56:42.035Z,65.60
2022-12-06T19:59:12.052Z,67.43
2022-12-06T20:01:45.004Z,72.10
2022-12-06T20:04:23.334Z,64.37
2022-12-06T20:06:51.653Z,64.43
2022-12-06T20:09:20.659Z,56.20
2022-12-06T20:12:04.103Z,57.43
2022-12-06T20:14:40.347Z,47.53
2022-12-06T20:17:10.958Z,60.60
2022-12-06T20:19:38.812Z,47.27
2022-12-06T20:22:06.030Z,48.67
2022-12-06T20:24:33.124Z,58.40
2022-12-06T20:27:00.356Z,49.93
2022-12-06T20:29:27.676Z,46.23
2022-12-06T20:31:58.068Z,47.57
2022-12-06T20:34:26.078Z,47.53
2022-12-06T20:36:53.208Z,48.73
2022-12-06T20:39:22.913Z,44.67
2022-12-06T20:41:50.885Z,46.73
2022-12-06T20:44:18.542Z,39.23
2022-12-06T20:46:45.907Z,49.83
2022-12-06T20:49:13.311Z,47.60
2022-12-06T20:51:40.519Z,43.50
2022-12-06T20:54:07.965Z,43.17
2022-12-06T20:56:38.642Z,45.87
2022-12-06T20:59:08.023Z,42.33
2022-12-06T21:01:39.195Z,43.20
2022-12-06T21:04:06.668Z,42.47
2022-12-06T21:06:33.733Z,44.53
2022-12-06T21:09:01.112Z,46.27
2022-12-06T21:11:28.257Z,39.70
2022-12-06T21:13:57.307Z,46.20
2022-12-06T21:16:26.956Z,45.67
2022-12-06T21:18:59.464Z,45.30
2022-12-06T21:21:29.720Z,43.30
2022-12-06T21:24:00.223Z,38.67
2022-12-06T21:26:28.424Z,43.77
2022-12-06T21:28:55.845Z,42.97
2022-12-06T21:31:28.073Z,45.57
2022-12-06T21:33:56.233Z,42.57
2022-12-06T21:36:24.143Z,41.37
2022-12-06T21:38:51.417Z,59.97
2022-12-06T21:41:18.723Z,40.60
2022-12-06T21:43:46.021Z,43.63
2022-12-06T21:46:15.777Z,47.30
2022-12-06T21:48:43.236Z,37.97
2022-12-06T21:51:14.067Z,42.40
2022-12-06T21:53:41.277Z,38.07
2022-12-06T21:56:10.055Z,43.03
2022-12-06T21:58:37.186Z,42.47
2022-12-06T22:01:10.332Z,43.27
2022-12-06T22:03:38.224Z,41.20
2022-12-06T22:06:07.141Z,41.53
2022-12-06T22:08:34.348Z,39.80
2022-12-06T22:11:05.832Z,44.60
2022-12-06T22:13:32.970Z,38.73
2022-12-06T22:16:08.686Z,39.53
2022-12-06T22:18:41.163Z,38.77
2022-12-06T22:21:15.193Z,36.77
2022-12-06T22:23:42.704Z,40.83
2022-12-06T22:26:13.318Z,33.53
2022-12-06T22:28:40.390Z,46.17
2022-12-06T22:31:13.148Z,42.60
2022-12-06T22:33:40.915Z,41.73
2022-12-06T22:36:09.007Z,41.20
2022-12-06T22:38:36.425Z,42.50
2022-12-06T22:41:04.406Z,43.33
2022-12-06T22:43:31.777Z,38.43
2022-12-06T22:46:14.216Z,38.90
2022-12-06T22:48:42.700Z,43.53
2022-12-06T22:51:21.249Z,50.67
2022-12-06T22:53:53.843Z,45.57
2022-12-06T22:56:21.041Z,49.33
2022-12-06T22:58:48.313Z,48.70
2022-12-06T23:01:17.896Z,48.93
2022-12-06T23:03:46.682Z,45.90
2022-12-06T23:06:15.925Z,43.47
2022-12-06T23:08:43.491Z,48.73
2022-12-06T23:11:19.760Z,49.60
2022-12-06T23:13:47.950Z,45.73
2022-12-06T23:16:17.721Z,48.07
2022-12-06T23:18:45.686Z,48.50
2022-12-06T23:21:18.246Z,51.43
2022-12-06T23:23:50.843Z,57.07
2022-12-06T23:26:20.632Z,56.43
2022-12-06T23:28:48.151Z,61.47
2022-12-06T23:31:18.780Z,55.87
2022-12-06T23:33:46.367Z,56.60
2022-12-06T23:36:22.528Z,60.33
2022-12-06T23:38:49.676Z,55.97
2022-12-06T23:41:19.424Z,51.33
2022-12-06T23:43:46.909Z,55.17
2022-12-06T23:46:20.607Z,54.70
2022-12-06T23:48:52.855Z,50.63
2022-12-06T23:51:22.549Z,55.67
2022-12-06T23:53:55.038Z,48.80
2022-12-06T23:56:22.611Z,51.40
2022-12-06T23:58:50.787Z,53.67
